Sukkur Weather



Sukkur's Current Weather

Temprature 29.93o haze

haze

Rain: 0 %

Min Temprature29.93o
Max Temprature29.93o
Humidity51
Wind Speed5.14 m/h
Sun Rise05:31:36
Sun Set19:11:28
Current Time: 24-May-2022 08:33:55
Lat/Lon: 27.7052, 68.8574




Sukkur's Geo Location



Sukkur's Weather Forecast

Time Overall Temp Min Temp Max Temp Humidity Wind Speed Rain
24-May-2022 (Tue)
11:00:00 clear sky 32.610 32.610 37.980 41 5.66 m/h 0 %
14:00:00 clear sky 38.000 38.000 42.040 25 4.65 m/h 0 %
17:00:00 clear sky 42.760 42.760 42.760 10 3.19 m/h 0 %
20:00:00 clear sky 38.870 38.870 38.870 12 3.5 m/h 0 %
23:00:00 clear sky 35.570 35.570 35.570 16 3.72 m/h 0 %
25-May-2022 (Wed)
02:00:00 clear sky 33.600 33.600 33.600 20 3.56 m/h 0 %
05:00:00 clear sky 31.790 31.790 31.790 20 3.54 m/h 0 %
08:00:00 clear sky 34.530 34.530 34.530 25 4.51 m/h 0 %
11:00:00 clear sky 41.250 41.250 41.250 15 2.57 m/h 0 %
14:00:00 clear sky 44.370 44.370 44.370 9 1.7 m/h 0 %
17:00:00 clear sky 44.880 44.880 44.880 7 1.97 m/h 0 %
20:00:00 clear sky 40.910 40.910 40.910 8 3.38 m/h 0 %
23:00:00 clear sky 36.070 36.070 36.070 30 7.6 m/h 0 %
26-May-2022 (Thu)
02:00:00 clear sky 33.310 33.310 33.310 44 5.68 m/h 0 %
05:00:00 clear sky 31.950 31.950 31.950 48 5.6 m/h 0 %
08:00:00 clear sky 35.000 35.000 35.000 38 5.42 m/h 0 %
11:00:00 clear sky 42.160 42.160 42.160 21 5.15 m/h 0 %
14:00:00 clear sky 46.460 46.460 46.460 12 4.33 m/h 0 %
17:00:00 clear sky 47.090 47.090 47.090 9 4.4 m/h 0 %
20:00:00 clear sky 41.830 41.830 41.830 17 8.56 m/h 0 %
23:00:00 clear sky 34.320 34.320 34.320 44 8.8 m/h 0 %
27-May-2022 (Fri)
02:00:00 clear sky 31.820 31.820 31.820 53 7.08 m/h 0 %
05:00:00 clear sky 30.450 30.450 30.450 57 6.2 m/h 0 %
08:00:00 clear sky 34.060 34.060 34.060 44 3.97 m/h 0 %
11:00:00 clear sky 42.700 42.700 42.700 19 0.66 m/h 0 %
14:00:00 clear sky 49.180 49.180 49.180 5 4.91 m/h 0 %
17:00:00 clear sky 49.140 49.140 49.140 4 4.23 m/h 0 %
20:00:00 clear sky 42.960 42.960 42.960 4 4.22 m/h 0 %
23:00:00 clear sky 37.530 37.530 37.530 23 4.07 m/h 0 %
28-May-2022 (Sat)
02:00:00 clear sky 37.560 37.560 37.560 10 3.43 m/h 0 %
05:00:00 clear sky 34.600 34.600 34.600 8 3.27 m/h 0 %
08:00:00 clear sky 40.130 40.130 40.130 4 6.14 m/h 0 %
11:00:00 clear sky 45.830 45.830 45.830 3 10.37 m/h 0 %
14:00:00 clear sky 47.980 47.980 47.980 2 3.87 m/h 0 %
17:00:00 clear sky 47.610 47.610 47.610 1 7.53 m/h 0 %
20:00:00 clear sky 41.270 41.270 41.270 3 6.19 m/h 0 %
23:00:00 clear sky 37.100 37.100 37.100 5 4.86 m/h 0 %
29-May-2022 (Sun)
02:00:00 clear sky 34.350 34.350 34.350 6 3.74 m/h 0 %
05:00:00 clear sky 31.860 31.860 31.860 7 3.55 m/h 0 %
08:00:00 clear sky 36.970 36.970 36.970 4 4.17 m/h 0 %

Famous Cities (61)